createdAt,value
2017-12-12T00:02:15.653Z,3.80
2017-12-12T00:04:43.632Z,3.80
2017-12-12T00:07:11.134Z,3.80
2017-12-12T00:09:38.556Z,3.80
2017-12-12T00:12:06.796Z,3.70
2017-12-12T00:14:34.768Z,3.70
2017-12-12T00:17:02.273Z,3.70
2017-12-12T00:19:30.982Z,3.60
2017-12-12T00:21:59.177Z,3.60
2017-12-12T00:24:27.145Z,3.60
2017-12-12T00:26:54.584Z,3.60
2017-12-12T00:29:22.379Z,3.60
2017-12-12T00:31:50.244Z,3.60
2017-12-12T00:34:17.896Z,3.60
2017-12-12T00:36:45.339Z,3.60
2017-12-12T00:39:12.804Z,3.60
2017-12-12T00:41:40.251Z,3.60
2017-12-12T00:44:07.727Z,3.50
2017-12-12T00:46:35.394Z,3.40
2017-12-12T00:49:03.984Z,3.40
2017-12-12T00:51:31.496Z,3.40
2017-12-12T00:53:59.077Z,3.40
2017-12-12T00:56:26.908Z,3.40
2017-12-12T00:58:55.094Z,3.40
2017-12-12T01:01:23.574Z,3.40
2017-12-12T01:03:51.395Z,3.40
2017-12-12T01:06:19.643Z,3.40
2017-12-12T01:08:47.433Z,3.40
2017-12-12T01:11:15.963Z,3.30
2017-12-12T01:13:44.195Z,3.30
2017-12-12T01:16:12.525Z,3.30
2017-12-12T01:18:40.055Z,3.20
2017-12-12T01:21:07.577Z,3.20
2017-12-12T01:23:35.042Z,3.10
2017-12-12T01:26:03.243Z,3.10
2017-12-12T01:28:31.293Z,3.10
2017-12-12T01:30:59.546Z,3.00
2017-12-12T01:33:27.282Z,3.00
2017-12-12T01:35:55.516Z,2.90
2017-12-12T01:38:23.241Z,2.90
2017-12-12T01:40:50.761Z,2.90
2017-12-12T01:43:18.242Z,2.90
2017-12-12T01:45:45.793Z,2.80
2017-12-12T01:48:13.887Z,2.80
2017-12-12T01:50:41.387Z,2.80
2017-12-12T01:53:08.845Z,2.90
2017-12-12T01:55:36.467Z,2.80
2017-12-12T01:58:04.059Z,2.80
2017-12-12T02:00:32.018Z,2.80
2017-12-12T02:03:00.779Z,2.80
2017-12-12T02:05:28.840Z,2.80
2017-12-12T02:07:56.713Z,2.80
2017-12-12T02:10:24.183Z,2.80
2017-12-12T02:12:52.462Z,2.70
2017-12-12T02:15:21.027Z,2.70
2017-12-12T02:17:48.494Z,2.70
2017-12-12T02:20:16.709Z,2.60
2017-12-12T02:22:44.537Z,2.60
2017-12-12T02:25:13.529Z,2.70
2017-12-12T02:27:42.300Z,2.70
2017-12-12T02:30:10.875Z,2.70
2017-12-12T02:32:38.347Z,2.70
2017-12-12T02:35:06.387Z,2.80
2017-12-12T02:37:33.832Z,2.80
2017-12-12T02:40:01.729Z,2.80
2017-12-12T02:42:29.205Z,2.80
2017-12-12T02:44:57.413Z,2.80
2017-12-12T02:47:25.305Z,2.70
2017-12-12T02:49:52.881Z,2.80
2017-12-12T02:52:20.371Z,2.80
2017-12-12T02:54:48.637Z,2.80
2017-12-12T02:57:16.903Z,2.80
2017-12-12T02:59:44.383Z,2.80
2017-12-12T03:02:13.041Z,2.70
2017-12-12T03:04:40.999Z,2.70
2017-12-12T03:07:08.477Z,2.60
2017-12-12T03:09:35.921Z,2.60
2017-12-12T03:12:03.441Z,2.60
2017-12-12T03:14:31.327Z,2.60
2017-12-12T03:16:59.279Z,2.50
2017-12-12T03:19:26.712Z,2.50
2017-12-12T03:21:54.221Z,2.50
2017-12-12T03:24:22.394Z,2.50
2017-12-12T03:26:49.969Z,2.50
2017-12-12T03:29:18.052Z,2.50
2017-12-12T03:31:46.371Z,2.50
2017-12-12T03:34:13.905Z,2.50
2017-12-12T03:36:41.897Z,2.50
2017-12-12T03:39:09.352Z,2.50
2017-12-12T03:41:36.809Z,2.50
2017-12-12T03:44:04.368Z,2.50
2017-12-12T03:46:32.444Z,2.50
2017-12-12T03:49:00.136Z,2.50
2017-12-12T03:51:28.102Z,2.40
2017-12-12T03:53:57.066Z,2.50
2017-12-12T03:56:24.536Z,2.50
2017-12-12T03:58:53.027Z,2.50
2017-12-12T04:01:20.499Z,2.60
2017-12-12T04:03:47.947Z,2.60
2017-12-12T04:06:15.906Z,2.60
2017-12-12T04:08:43.834Z,2.60
2017-12-12T04:11:11.322Z,2.60
2017-12-12T04:13:39.373Z,2.70
2017-12-12T04:16:06.843Z,2.70
2017-12-12T04:18:34.307Z,2.70
2017-12-12T04:21:02.403Z,2.70
2017-12-12T04:23:30.565Z,2.80
2017-12-12T04:25:58.535Z,2.80
2017-12-12T04:28:27.435Z,2.80
2017-12-12T04:30:54.909Z,2.80
2017-12-12T04:33:23.253Z,2.80
2017-12-12T04:35:50.794Z,2.80
2017-12-12T04:38:18.269Z,2.90
2017-12-12T04:40:46.188Z,2.90
2017-12-12T04:43:13.632Z,2.90
2017-12-12T04:45:41.865Z,2.90
2017-12-12T04:48:09.744Z,2.90
2017-12-12T04:50:37.185Z,2.80
2017-12-12T04:53:05.258Z,2.80
2017-12-12T04:55:32.720Z,2.70
2017-12-12T04:58:00.776Z,2.70
2017-12-12T05:00:28.969Z,2.70
2017-12-12T05:02:56.417Z,2.80
2017-12-12T05:05:25.079Z,2.80
2017-12-12T05:07:53.040Z,2.80
2017-12-12T05:10:20.509Z,2.80
2017-12-12T05:12:47.961Z,2.80
2017-12-12T05:15:15.988Z,2.90
2017-12-12T05:17:44.196Z,2.80
2017-12-12T05:20:11.739Z,2.80
2017-12-12T05:22:39.180Z,2.80
2017-12-12T05:25:07.010Z,2.80
2017-12-12T05:27:35.968Z,2.80
2017-12-12T05:30:03.834Z,2.80
2017-12-12T05:32:31.291Z,2.80
2017-12-12T05:34:59.189Z,2.70
2017-12-12T05:37:26.671Z,2.60
2017-12-12T05:39:54.107Z,2.60
2017-12-12T05:42:21.580Z,2.60
2017-12-12T05:44:49.090Z,2.60
2017-12-12T05:47:17.000Z,2.60
2017-12-12T05:49:44.760Z,2.60
2017-12-12T05:52:12.225Z,2.60
2017-12-12T05:54:40.454Z,2.60
2017-12-12T05:57:08.664Z,2.70
2017-12-12T05:59:36.972Z,2.60
2017-12-12T06:02:04.454Z,2.60
2017-12-12T06:04:32.658Z,2.60
2017-12-12T06:07:00.219Z,2.60
2017-12-12T06:09:29.193Z,2.60
2017-12-12T06:11:56.666Z,2.60
2017-12-12T06:14:24.559Z,2.60
2017-12-12T06:16:52.800Z,2.60
2017-12-12T06:19:20.267Z,2.60
2017-12-12T06:21:48.910Z,2.60
2017-12-12T06:24:16.357Z,2.60
2017-12-12T06:26:44.404Z,2.60
2017-12-12T06:29:13.264Z,2.60
2017-12-12T06:31:40.737Z,2.60
2017-12-12T06:34:08.715Z,2.60
2017-12-12T06:36:36.933Z,2.60
2017-12-12T06:39:04.759Z,2.60
2017-12-12T06:41:33.017Z,2.60
2017-12-12T06:44:00.554Z,2.60
2017-12-12T06:46:28.194Z,2.60
2017-12-12T06:48:56.099Z,2.60
2017-12-12T06:51:23.617Z,2.60
2017-12-12T06:53:51.356Z,2.60
2017-12-12T06:56:19.233Z,2.60
2017-12-12T06:58:46.705Z,2.60
2017-12-12T07:01:14.152Z,2.70
2017-12-12T07:03:41.640Z,2.70
2017-12-12T07:06:09.694Z,2.70
2017-12-12T07:08:37.144Z,2.70
2017-12-12T07:11:04.754Z,2.70
2017-12-12T07:13:33.024Z,2.60
2017-12-12T07:16:00.463Z,2.60
2017-12-12T07:18:27.941Z,2.60
2017-12-12T07:20:56.809Z,2.70
2017-12-12T07:23:24.307Z,2.60
2017-12-12T07:25:52.967Z,2.70
2017-12-12T07:28:21.954Z,2.60
2017-12-12T07:30:50.193Z,2.60
2017-12-12T07:33:17.792Z,2.60
2017-12-12T07:35:45.563Z,2.60
2017-12-12T07:38:13.052Z,2.60
2017-12-12T07:40:40.504Z,2.50
2017-12-12T07:43:07.977Z,2.60
2017-12-12T07:45:35.879Z,2.50
2017-12-12T07:48:03.708Z,2.60
2017-12-12T07:50:31.178Z,2.50
2017-12-12T07:52:59.402Z,2.60
2017-12-12T07:55:28.064Z,2.60
2017-12-12T07:57:55.534Z,2.60
2017-12-12T08:00:23.051Z,2.60
2017-12-12T08:02:50.481Z,2.60
2017-12-12T08:05:18.626Z,2.60
2017-12-12T08:07:47.505Z,2.70
2017-12-12T08:10:15.032Z,2.60
2017-12-12T08:12:42.486Z,2.70
2017-12-12T08:15:10.276Z,2.70
2017-12-12T08:17:37.815Z,2.70
2017-12-12T08:20:05.501Z,2.70
2017-12-12T08:22:32.954Z,2.70
2017-12-12T08:25:00.513Z,2.70
2017-12-12T08:27:28.398Z,2.70
2017-12-12T08:29:56.251Z,2.70
2017-12-12T08:32:23.795Z,2.70
2017-12-12T08:34:51.389Z,2.70
2017-12-12T08:37:19.690Z,2.70
2017-12-12T08:39:47.874Z,2.70
2017-12-12T08:42:15.391Z,2.80
2017-12-12T08:44:42.845Z,2.80
2017-12-12T08:47:11.593Z,2.80
2017-12-12T08:49:39.056Z,2.80
2017-12-12T08:52:06.605Z,2.70
2017-12-12T08:54:34.164Z,2.70
2017-12-12T08:57:01.722Z,2.80
2017-12-12T08:59:29.179Z,2.80
2017-12-12T09:01:56.901Z,2.80
2017-12-12T09:04:26.477Z,2.90
2017-12-12T09:06:54.938Z,2.80
2017-12-12T09:09:22.937Z,2.90
2017-12-12T09:11:50.590Z,2.80
2017-12-12T09:14:18.548Z,2.80
2017-12-12T09:16:46.016Z,2.80
2017-12-12T09:19:13.514Z,2.80
2017-12-12T09:21:41.257Z,2.90
2017-12-12T09:24:09.484Z,2.80
2017-12-12T09:26:37.284Z,2.80
2017-12-12T09:29:05.924Z,2.80
2017-12-12T09:31:33.382Z,2.80
2017-12-12T09:34:01.073Z,2.80
2017-12-12T09:36:28.522Z,2.80
2017-12-12T09:38:56.038Z,2.80
2017-12-12T09:41:23.483Z,2.80
2017-12-12T09:43:51.818Z,2.80
2017-12-12T09:46:19.307Z,2.80
2017-12-12T09:48:47.971Z,2.70
2017-12-12T09:51:16.949Z,2.70
2017-12-12T09:53:45.028Z,2.70
2017-12-12T09:56:12.515Z,2.80
2017-12-12T09:58:40.758Z,2.80
2017-12-12T10:01:09.029Z,2.80
2017-12-12T10:03:36.487Z,2.80
2017-12-12T10:06:04.364Z,2.80
2017-12-12T10:08:31.883Z,2.70
2017-12-12T10:10:59.333Z,2.80
2017-12-12T10:13:28.377Z,2.70
2017-12-12T10:15:55.845Z,2.80
2017-12-12T10:18:24.091Z,2.70
2017-12-12T10:20:51.625Z,2.70
2017-12-12T10:23:19.121Z,2.60
2017-12-12T10:25:47.193Z,2.60
2017-12-12T10:28:14.838Z,2.60
2017-12-12T10:30:42.606Z,2.60
2017-12-12T10:33:10.088Z,2.60
2017-12-12T10:35:38.308Z,2.60
2017-12-12T10:38:05.899Z,2.60
2017-12-12T10:40:33.379Z,2.60
2017-12-12T10:43:00.825Z,2.60
2017-12-12T10:45:28.293Z,2.60
2017-12-12T10:47:56.975Z,2.60
2017-12-12T10:50:25.537Z,2.60
2017-12-12T10:52:53.424Z,2.50
2017-12-12T10:55:21.058Z,2.50
2017-12-12T10:57:48.497Z,2.50
2017-12-12T11:00:16.290Z,2.50
2017-12-12T11:02:43.728Z,2.50
2017-12-12T11:05:11.719Z,2.50
2017-12-12T11:07:39.461Z,2.50
2017-12-12T11:10:07.212Z,2.50
2017-12-12T11:12:34.696Z,2.40
2017-12-12T11:15:02.938Z,2.40
2017-12-12T11:17:30.496Z,2.50
2017-12-12T11:19:58.055Z,2.50
2017-12-12T11:22:25.520Z,2.40
2017-12-12T11:24:52.964Z,2.50
2017-12-12T11:27:20.809Z,2.40
2017-12-12T11:29:48.652Z,2.40
2017-12-12T11:32:16.973Z,2.40
2017-12-12T11:34:44.427Z,2.40
2017-12-12T11:37:11.931Z,2.40
2017-12-12T11:39:40.606Z,2.50
2017-12-12T11:42:08.435Z,2.50
2017-12-12T11:44:35.998Z,2.50
2017-12-12T11:47:04.187Z,2.60
2017-12-12T11:49:31.646Z,2.60
2017-12-12T11:51:59.173Z,2.60
2017-12-12T11:54:26.631Z,2.60
2017-12-12T11:56:54.965Z,2.60
2017-12-12T11:59:23.026Z,2.60
2017-12-12T12:01:50.489Z,2.60
2017-12-12T12:04:17.965Z,2.60
2017-12-12T12:06:47.196Z,2.70
2017-12-12T12:09:14.679Z,2.60
2017-12-12T12:11:42.152Z,2.70
2017-12-12T12:14:10.299Z,2.70
2017-12-12T12:16:37.789Z,2.80
2017-12-12T12:19:05.299Z,2.80
2017-12-12T12:21:32.860Z,2.80
2017-12-12T12:24:00.354Z,2.80
2017-12-12T12:26:28.384Z,2.80
2017-12-12T12:28:56.709Z,2.80
2017-12-12T12:31:24.854Z,2.90
2017-12-12T12:33:52.365Z,2.90
2017-12-12T12:36:20.585Z,3.00
2017-12-12T12:38:48.372Z,3.00
2017-12-12T12:41:15.827Z,3.10
2017-12-12T12:43:43.411Z,3.10
2017-12-12T12:46:12.480Z,3.20
2017-12-12T12:48:40.440Z,3.10
2017-12-12T12:51:07.981Z,3.20
2017-12-12T12:53:36.277Z,3.20
2017-12-12T12:56:03.725Z,3.20
2017-12-12T12:58:31.210Z,3.30
2017-12-12T13:00:58.720Z,3.30
2017-12-12T13:03:26.172Z,3.30
2017-12-12T13:05:54.526Z,3.30
2017-12-12T13:08:22.107Z,3.40
2017-12-12T13:10:49.638Z,3.40
2017-12-12T13:13:17.691Z,3.50
2017-12-12T13:15:45.546Z,3.50
2017-12-12T13:18:13.070Z,3.50
2017-12-12T13:20:41.173Z,3.60
2017-12-12T13:23:08.728Z,3.50
2017-12-12T13:25:36.212Z,3.50
2017-12-12T13:28:04.863Z,3.40
2017-12-12T13:30:32.726Z,3.50
2017-12-12T13:33:00.180Z,3.50
2017-12-12T13:35:27.695Z,3.50
2017-12-12T13:37:55.176Z,3.50
2017-12-12T13:40:22.697Z,3.50
2017-12-12T13:42:50.781Z,3.50
2017-12-12T13:45:18.359Z,3.50
2017-12-12T13:47:46.260Z,3.40
2017-12-12T13:50:13.783Z,3.40
2017-12-12T13:52:41.304Z,3.40
2017-12-12T13:55:10.334Z,3.30
2017-12-12T13:57:37.945Z,3.30
2017-12-12T14:00:05.429Z,3.40
2017-12-12T14:02:32.911Z,3.30
2017-12-12T14:05:00.426Z,3.40
2017-12-12T14:07:29.359Z,3.40
2017-12-12T14:09:56.856Z,3.30
2017-12-12T14:12:24.604Z,3.40
2017-12-12T14:14:52.393Z,3.40
2017-12-12T14:17:21.291Z,3.30
2017-12-12T14:19:49.507Z,3.40
2017-12-12T14:22:17.005Z,3.30
2017-12-12T14:24:44.514Z,3.40
2017-12-12T14:27:12.316Z,3.40
2017-12-12T14:29:40.117Z,3.40
2017-12-12T14:32:07.561Z,3.40
2017-12-12T14:34:35.006Z,3.40
2017-12-12T14:37:02.865Z,3.40
2017-12-12T14:39:31.274Z,3.40
2017-12-12T14:42:00.042Z,3.40
2017-12-12T14:44:27.491Z,3.40
2017-12-12T14:46:55.653Z,3.40
2017-12-12T14:49:23.387Z,3.40
2017-12-12T14:51:50.949Z,3.30
2017-12-12T14:54:18.398Z,3.40
2017-12-12T14:56:45.882Z,3.40
2017-12-12T14:59:13.589Z,3.40
2017-12-12T15:01:42.206Z,3.40
2017-12-12T15:04:10.286Z,3.40
2017-12-12T15:06:37.867Z,3.30
2017-12-12T15:09:05.322Z,3.30
2017-12-12T15:11:32.801Z,3.20
2017-12-12T15:14:00.881Z,3.20
2017-12-12T15:16:29.161Z,3.20
2017-12-12T15:18:58.310Z,3.30
2017-12-12T15:21:25.794Z,3.30
2017-12-12T15:23:53.243Z,3.30
2017-12-12T15:26:21.103Z,3.30
2017-12-12T15:28:48.896Z,3.30
2017-12-12T15:31:17.203Z,3.40
2017-12-12T15:33:44.694Z,3.40
2017-12-12T15:36:12.358Z,3.40
2017-12-12T15:38:39.888Z,3.40
2017-12-12T15:41:07.972Z,3.40
2017-12-12T15:43:35.425Z,3.30
2017-12-12T15:46:02.978Z,3.30
2017-12-12T15:48:30.795Z,3.30
2017-12-12T15:50:58.234Z,3.30
2017-12-12T15:53:26.098Z,3.20
2017-12-12T15:55:53.561Z,3.20
2017-12-12T15:58:22.557Z,3.10
2017-12-12T16:00:50.516Z,3.10
2017-12-12T16:03:18.016Z,3.10
2017-12-12T16:05:45.465Z,3.10
2017-12-12T16:08:12.950Z,3.10
2017-12-12T16:10:40.442Z,3.10
2017-12-12T16:13:07.900Z,3.10
2017-12-12T16:15:35.973Z,3.10
2017-12-12T16:18:03.439Z,3.10
2017-12-12T16:20:31.692Z,3.10
2017-12-12T16:23:00.353Z,3.10
2017-12-12T16:25:28.257Z,3.10
2017-12-12T16:27:56.217Z,3.10
2017-12-12T16:30:24.502Z,3.10
2017-12-12T16:32:51.963Z,3.10
2017-12-12T16:35:19.453Z,3.10
2017-12-12T16:37:46.930Z,3.10
2017-12-12T16:40:14.488Z,3.10
2017-12-12T16:42:42.541Z,3.10
2017-12-12T16:45:09.990Z,3.20
2017-12-12T16:47:38.836Z,3.20
2017-12-12T16:50:06.362Z,3.20
2017-12-12T16:52:33.828Z,3.20
2017-12-12T16:55:01.299Z,3.20
2017-12-12T16:57:29.406Z,3.10
2017-12-12T16:59:57.620Z,3.10
2017-12-12T17:02:25.088Z,3.10
2017-12-12T17:04:52.670Z,3.10
2017-12-12T17:07:20.152Z,3.10
2017-12-12T17:09:48.401Z,3.10
2017-12-12T17:12:15.854Z,3.10
2017-12-12T17:14:43.721Z,3.10
2017-12-12T17:17:11.662Z,3.10
2017-12-12T17:19:39.227Z,3.10
2017-12-12T17:22:06.755Z,3.10
2017-12-12T17:24:35.052Z,3.10
2017-12-12T17:27:03.022Z,3.10
2017-12-12T17:29:31.033Z,3.10
2017-12-12T17:31:58.650Z,3.10
2017-12-12T17:34:26.539Z,3.10
2017-12-12T17:36:53.990Z,3.10
2017-12-12T17:39:21.458Z,3.10
2017-12-12T17:41:49.607Z,3.10
2017-12-12T17:44:17.110Z,3.00
2017-12-12T17:46:45.351Z,3.00
2017-12-12T17:49:13.233Z,3.00
2017-12-12T17:51:40.727Z,3.10
2017-12-12T17:54:08.939Z,3.10
2017-12-12T17:56:36.433Z,3.10
2017-12-12T17:59:03.885Z,3.20
2017-12-12T18:01:31.353Z,3.20
2017-12-12T18:03:58.868Z,3.20
2017-12-12T18:06:26.829Z,3.20
2017-12-12T18:08:54.317Z,3.20
2017-12-12T18:11:22.107Z,3.20
2017-12-12T18:13:50.363Z,3.20
2017-12-12T18:16:18.453Z,3.20
2017-12-12T18:18:45.959Z,3.20
2017-12-12T18:21:13.406Z,3.20
2017-12-12T18:23:41.248Z,3.20
2017-12-12T18:26:09.604Z,3.20
2017-12-12T18:28:37.691Z,3.20
2017-12-12T18:31:05.925Z,3.20
2017-12-12T18:33:33.513Z,3.20
2017-12-12T18:36:01.740Z,3.20
2017-12-12T18:38:29.203Z,3.20
2017-12-12T18:40:56.659Z,3.10
2017-12-12T18:43:24.147Z,3.10
2017-12-12T18:45:51.597Z,3.10
2017-12-12T18:48:19.541Z,3.10
2017-12-12T18:50:47.051Z,3.10
2017-12-12T18:53:15.278Z,3.10
2017-12-12T18:55:42.893Z,3.10
2017-12-12T18:58:11.128Z,3.10
2017-12-12T19:00:39.167Z,3.10
2017-12-12T19:03:06.625Z,3.10
2017-12-12T19:05:34.437Z,3.10
2017-12-12T19:08:01.929Z,3.10
2017-12-12T19:10:29.411Z,3.10
2017-12-12T19:12:56.971Z,3.10
2017-12-12T19:15:25.239Z,3.10
2017-12-12T19:17:53.295Z,3.10
2017-12-12T19:20:20.794Z,3.10
2017-12-12T19:22:48.279Z,3.10
2017-12-12T19:25:15.747Z,3.20
2017-12-12T19:27:44.337Z,3.20
2017-12-12T19:30:13.036Z,3.20
2017-12-12T19:32:40.672Z,3.20
2017-12-12T19:35:09.095Z,3.10
2017-12-12T19:37:36.956Z,3.10
2017-12-12T19:40:04.511Z,3.10
2017-12-12T19:42:32.070Z,3.10
2017-12-12T19:44:59.660Z,3.10
2017-12-12T19:47:28.115Z,3.10
2017-12-12T19:49:55.804Z,3.10
2017-12-12T19:52:23.309Z,3.10
2017-12-12T19:54:51.616Z,3.10
2017-12-12T19:57:20.192Z,3.10
2017-12-12T19:59:48.062Z,3.10
2017-12-12T20:02:15.628Z,3.10
2017-12-12T20:04:44.198Z,3.10
2017-12-12T20:07:12.066Z,3.10
2017-12-12T20:09:39.667Z,3.10
2017-12-12T20:12:07.523Z,3.20
2017-12-12T20:14:36.510Z,3.20
2017-12-12T20:17:05.066Z,3.30
2017-12-12T20:19:32.928Z,3.30
2017-12-12T20:22:00.481Z,3.30
2017-12-12T20:24:28.377Z,3.30
2017-12-12T20:26:56.368Z,3.40
2017-12-12T20:29:25.629Z,3.30
2017-12-12T20:31:53.840Z,3.30
2017-12-12T20:34:21.870Z,3.30
2017-12-12T20:36:49.647Z,3.30
2017-12-12T20:39:18.354Z,3.20
2017-12-12T20:41:46.799Z,3.20
2017-12-12T20:44:14.559Z,3.20
2017-12-12T20:46:42.426Z,3.20
2017-12-12T20:49:11.018Z,3.20
2017-12-12T20:51:39.080Z,3.20
2017-12-12T20:54:07.980Z,3.10
2017-12-12T20:56:35.523Z,3.10
2017-12-12T20:59:03.016Z,3.10
2017-12-12T21:01:30.579Z,3.10
2017-12-12T21:03:58.086Z,3.10
2017-12-12T21:06:25.969Z,3.10
2017-12-12T21:08:53.497Z,3.10
2017-12-12T21:11:21.465Z,3.20
2017-12-12T21:13:50.181Z,3.10
2017-12-12T21:16:17.648Z,3.10
2017-12-12T21:18:45.180Z,3.10
2017-12-12T21:21:12.677Z,3.10
2017-12-12T21:23:40.210Z,3.10
2017-12-12T21:26:07.823Z,3.00
2017-12-12T21:28:36.058Z,3.00
2017-12-12T21:31:03.756Z,3.00
2017-12-12T21:33:32.980Z,2.90
2017-12-12T21:36:00.646Z,2.90
2017-12-12T21:38:28.227Z,3.00
2017-12-12T21:40:56.254Z,2.90
2017-12-12T21:43:24.493Z,2.80
2017-12-12T21:45:52.848Z,2.80
2017-12-12T21:48:20.805Z,2.80
2017-12-12T21:50:48.301Z,2.80
2017-12-12T21:53:15.815Z,2.80
2017-12-12T21:55:43.427Z,2.80
2017-12-12T21:58:11.254Z,2.80
2017-12-12T22:00:38.722Z,2.80
2017-12-12T22:03:06.373Z,2.80
2017-12-12T22:05:34.080Z,2.90
2017-12-12T22:08:02.702Z,2.90
2017-12-12T22:10:30.196Z,2.90
2017-12-12T22:12:57.687Z,2.90
2017-12-12T22:15:25.553Z,2.80
2017-12-12T22:17:53.012Z,2.80
2017-12-12T22:20:21.331Z,2.80
2017-12-12T22:22:49.000Z,2.80
2017-12-12T22:25:16.608Z,2.80
2017-12-12T22:27:45.729Z,2.90
2017-12-12T22:30:14.709Z,2.90
2017-12-12T22:32:42.955Z,2.90
2017-12-12T22:35:10.935Z,2.80
2017-12-12T22:37:38.423Z,2.90
2017-12-12T22:40:05.892Z,2.90
2017-12-12T22:42:33.612Z,2.90
2017-12-12T22:45:02.080Z,2.90
2017-12-12T22:47:30.248Z,2.90
2017-12-12T22:49:58.508Z,2.90
2017-12-12T22:52:25.985Z,2.90
2017-12-12T22:54:53.473Z,2.90
2017-12-12T22:57:21.710Z,3.00
2017-12-12T22:59:49.141Z,2.90
2017-12-12T23:02:16.638Z,3.00
2017-12-12T23:04:44.967Z,3.00
2017-12-12T23:07:12.423Z,3.00
2017-12-12T23:09:39.947Z,3.00
2017-12-12T23:12:08.160Z,3.10
2017-12-12T23:14:35.893Z,3.10
2017-12-12T23:17:03.480Z,3.10
2017-12-12T23:19:31.031Z,3.10
2017-12-12T23:21:58.853Z,3.10
2017-12-12T23:24:26.827Z,3.10
2017-12-12T23:26:54.902Z,3.10
2017-12-12T23:29:23.525Z,3.20
2017-12-12T23:31:51.086Z,3.10
2017-12-12T23:34:19.000Z,3.20
2017-12-12T23:36:46.611Z,3.20
2017-12-12T23:39:14.073Z,3.20
2017-12-12T23:41:42.256Z,3.20
2017-12-12T23:44:09.953Z,3.20
2017-12-12T23:46:37.698Z,3.20
2017-12-12T23:49:05.583Z,3.20
2017-12-12T23:51:33.090Z,3.20
2017-12-12T23:54:00.719Z,3.30
2017-12-12T23:56:29.523Z,3.30
2017-12-12T23:58:57.097Z,3.30
